sensor_id;sensor_type;location;lat;lon;timestamp;temperature;humidity
42715;DHT22;28351;51.480;5.706;2023-11-22T00:00:21;3.70;99.90
42715;DHT22;28351;51.480;5.706;2023-11-22T00:02:47;3.70;99.90
42715;DHT22;28351;51.480;5.706;2023-11-22T00:05:12;3.70;99.90
42715;DHT22;28351;51.480;5.706;2023-11-22T00:07:38;3.80;99.90
42715;DHT22;28351;51.480;5.706;2023-11-22T00:10:05;3.80;99.90
42715;DHT22;28351;51.480;5.706;2023-11-22T00:12:31;3.80;99.90
42715;DHT22;28351;51.480;5.706;2023-11-22T00:15:06;3.70;99.90
42715;DHT22;28351;51.480;5.706;2023-11-22T00:17:33;3.80;99.90
42715;DHT22;28351;51.480;5.706;2023-11-22T00:20:00;3.90;99.90
42715;DHT22;28351;51.480;5.706;2023-11-22T00:22:27;3.90;99.90
42715;DHT22;28351;51.480;5.706;2023-11-22T00:24:53;3.90;99.90
42715;DHT22;28351;51.480;5.706;2023-11-22T00:27:19;3.90;99.90
42715;DHT22;28351;51.480;5.706;2023-11-22T00:29:45;3.70;99.90
42715;DHT22;28351;51.480;5.706;2023-11-22T00:32:11;3.70;99.90
42715;DHT22;28351;51.480;5.706;2023-11-22T00:34:37;3.70;99.90
42715;DHT22;28351;51.480;5.706;2023-11-22T00:37:03;3.70;99.90
42715;DHT22;28351;51.480;5.706;2023-11-22T00:39:28;3.60;99.90
42715;DHT22;28351;51.480;5.706;2023-11-22T00:41:54;3.50;99.90
42715;DHT22;28351;51.480;5.706;2023-11-22T00:44:21;3.50;99.90
42715;DHT22;28351;51.480;5.706;2023-11-22T00:46:47;3.50;99.90
42715;DHT22;28351;51.480;5.706;2023-11-22T00:49:12;3.50;99.90
42715;DHT22;28351;51.480;5.706;2023-11-22T00:51:38;3.50;99.90
42715;DHT22;28351;51.480;5.706;2023-11-22T00:54:04;3.40;99.90
42715;DHT22;28351;51.480;5.706;2023-11-22T00:56:30;3.40;99.90
42715;DHT22;28351;51.480;5.706;2023-11-22T00:58:55;3.30;99.90
42715;DHT22;28351;51.480;5.706;2023-11-22T01:01:25;3.30;99.90
42715;DHT22;28351;51.480;5.706;2023-11-22T01:03:51;3.30;99.90
42715;DHT22;28351;51.480;5.706;2023-11-22T01:06:16;3.30;99.90
42715;DHT22;28351;51.480;5.706;2023-11-22T01:08:43;3.30;99.90
42715;DHT22;28351;51.480;5.706;2023-11-22T01:11:09;3.20;99.90
42715;DHT22;28351;51.480;5.706;2023-11-22T01:13:34;3.20;99.90
42715;DHT22;28351;51.480;5.706;2023-11-22T01:16:07;3.20;99.90
42715;DHT22;28351;51.480;5.706;2023-11-22T01:18:32;3.20;99.90
42715;DHT22;28351;51.480;5.706;2023-11-22T01:20:58;3.10;99.90
42715;DHT22;28351;51.480;5.706;2023-11-22T01:23:23;3.10;99.90
42715;DHT22;28351;51.480;5.706;2023-11-22T01:25:49;3.00;99.90
42715;DHT22;28351;51.480;5.706;2023-11-22T01:28:15;3.00;99.90
42715;DHT22;28351;51.480;5.706;2023-11-22T01:30:43;3.00;99.90
42715;DHT22;28351;51.480;5.706;2023-11-22T01:33:11;3.00;99.90
42715;DHT22;28351;51.480;5.706;2023-11-22T01:35:37;2.90;99.90
42715;DHT22;28351;51.480;5.706;2023-11-22T01:38:04;2.80;99.90
42715;DHT22;28351;51.480;5.706;2023-11-22T01:40:30;2.80;99.90
42715;DHT22;28351;51.480;5.706;2023-11-22T01:42:57;2.70;99.90
42715;DHT22;28351;51.480;5.706;2023-11-22T01:45:23;2.70;99.90
42715;DHT22;28351;51.480;5.706;2023-11-22T01:47:49;2.70;99.90
42715;DHT22;28351;51.480;5.706;2023-11-22T01:50:15;2.70;99.90
42715;DHT22;28351;51.480;5.706;2023-11-22T01:52:41;2.70;99.90
42715;DHT22;28351;51.480;5.706;2023-11-22T01:55:09;2.70;99.90
42715;DHT22;28351;51.480;5.706;2023-11-22T01:57:35;2.70;99.90
42715;DHT22;28351;51.480;5.706;2023-11-22T02:00:02;2.60;99.90
42715;DHT22;28351;51.480;5.706;2023-11-22T02:02:30;2.60;99.90
42715;DHT22;28351;51.480;5.706;2023-11-22T02:04:56;2.60;99.90
42715;DHT22;28351;51.480;5.706;2023-11-22T02:07:23;2.50;99.90
42715;DHT22;28351;51.480;5.706;2023-11-22T02:09:49;2.50;99.90
42715;DHT22;28351;51.480;5.706;2023-11-22T02:12:15;2.50;99.90
42715;DHT22;28351;51.480;5.706;2023-11-22T02:14:40;2.50;99.90
42715;DHT22;28351;51.480;5.706;2023-11-22T02:17:06;2.60;99.90
42715;DHT22;28351;51.480;5.706;2023-11-22T02:19:32;2.50;99.90
42715;DHT22;28351;51.480;5.706;2023-11-22T02:21:58;2.50;99.90
42715;DHT22;28351;51.480;5.706;2023-11-22T02:24:24;2.40;99.90
42715;DHT22;28351;51.480;5.706;2023-11-22T02:26:52;2.30;99.90
42715;DHT22;28351;51.480;5.706;2023-11-22T02:29:18;2.30;99.90
42715;DHT22;28351;51.480;5.706;2023-11-22T02:31:43;2.30;99.90
42715;DHT22;28351;51.480;5.706;2023-11-22T02:34:24;2.30;99.90
42715;DHT22;28351;51.480;5.706;2023-11-22T02:36:50;2.30;99.90
42715;DHT22;28351;51.480;5.706;2023-11-22T02:39:18;2.30;99.90
42715;DHT22;28351;51.480;5.706;2023-11-22T02:41:45;2.20;99.90
42715;DHT22;28351;51.480;5.706;2023-11-22T02:44:10;2.20;99.90
42715;DHT22;28351;51.480;5.706;2023-11-22T02:46:40;2.20;99.90
42715;DHT22;28351;51.480;5.706;2023-11-22T02:49:05;2.10;99.90
42715;DHT22;28351;51.480;5.706;2023-11-22T02:51:31;2.10;99.90
42715;DHT22;28351;51.480;5.706;2023-11-22T02:53:57;2.20;99.90
42715;DHT22;28351;51.480;5.706;2023-11-22T02:56:23;2.20;99.90
42715;DHT22;28351;51.480;5.706;2023-11-22T02:58:49;2.10;99.90
42715;DHT22;28351;51.480;5.706;2023-11-22T03:01:15;2.10;99.90
42715;DHT22;28351;51.480;5.706;2023-11-22T03:03:40;2.10;99.90
42715;DHT22;28351;51.480;5.706;2023-11-22T03:06:06;2.10;99.90
42715;DHT22;28351;51.480;5.706;2023-11-22T03:08:32;2.10;99.90
42715;DHT22;28351;51.480;5.706;2023-11-22T03:10:58;2.00;99.90
42715;DHT22;28351;51.480;5.706;2023-11-22T03:13:24;2.00;99.90
42715;DHT22;28351;51.480;5.706;2023-11-22T03:15:50;2.00;99.90
42715;DHT22;28351;51.480;5.706;2023-11-22T03:18:15;2.00;99.90
42715;DHT22;28351;51.480;5.706;2023-11-22T03:20:42;2.00;99.90
42715;DHT22;28351;51.480;5.706;2023-11-22T03:23:08;1.90;99.90
42715;DHT22;28351;51.480;5.706;2023-11-22T03:25:36;2.00;99.90
42715;DHT22;28351;51.480;5.706;2023-11-22T03:28:02;1.90;99.90
42715;DHT22;28351;51.480;5.706;2023-11-22T03:30:27;1.90;99.90
42715;DHT22;28351;51.480;5.706;2023-11-22T03:32:53;1.90;99.90
42715;DHT22;28351;51.480;5.706;2023-11-22T03:35:19;1.80;99.90
42715;DHT22;28351;51.480;5.706;2023-11-22T03:37:46;1.80;99.90
42715;DHT22;28351;51.480;5.706;2023-11-22T03:40:12;1.70;99.90
42715;DHT22;28351;51.480;5.706;2023-11-22T03:42:39;1.70;99.90
42715;DHT22;28351;51.480;5.706;2023-11-22T03:45:05;1.70;99.90
42715;DHT22;28351;51.480;5.706;2023-11-22T03:47:32;1.70;99.90
42715;DHT22;28351;51.480;5.706;2023-11-22T03:50:04;1.70;99.90
42715;DHT22;28351;51.480;5.706;2023-11-22T03:52:31;1.70;99.90
42715;DHT22;28351;51.480;5.706;2023-11-22T03:54:56;1.70;99.90
42715;DHT22;28351;51.480;5.706;2023-11-22T03:57:23;1.60;99.90
42715;DHT22;28351;51.480;5.706;2023-11-22T03:59:49;1.60;99.90
42715;DHT22;28351;51.480;5.706;2023-11-22T04:02:15;1.60;99.90
42715;DHT22;28351;51.480;5.706;2023-11-22T04:04:41;1.60;99.90
42715;DHT22;28351;51.480;5.706;2023-11-22T04:07:07;1.60;99.90
42715;DHT22;28351;51.480;5.706;2023-11-22T04:09:33;1.50;99.90
42715;DHT22;28351;51.480;5.706;2023-11-22T04:11:59;1.50;99.90
42715;DHT22;28351;51.480;5.706;2023-11-22T04:14:25;1.50;99.90
42715;DHT22;28351;51.480;5.706;2023-11-22T04:16:53;1.50;99.90
42715;DHT22;28351;51.480;5.706;2023-11-22T04:19:19;1.50;99.90
42715;DHT22;28351;51.480;5.706;2023-11-22T04:21:44;1.50;99.90
42715;DHT22;28351;51.480;5.706;2023-11-22T04:24:10;1.40;99.90
42715;DHT22;28351;51.480;5.706;2023-11-22T04:26:38;1.40;99.90
42715;DHT22;28351;51.480;5.706;2023-11-22T04:29:04;1.40;99.90
42715;DHT22;28351;51.480;5.706;2023-11-22T04:31:30;1.40;99.90
42715;DHT22;28351;51.480;5.706;2023-11-22T04:33:55;1.40;99.90
42715;DHT22;28351;51.480;5.706;2023-11-22T04:36:23;1.40;99.90
42715;DHT22;28351;51.480;5.706;2023-11-22T04:38:49;1.40;99.90
42715;DHT22;28351;51.480;5.706;2023-11-22T04:41:15;1.40;99.90
42715;DHT22;28351;51.480;5.706;2023-11-22T04:43:41;1.30;99.90
42715;DHT22;28351;51.480;5.706;2023-11-22T04:46:07;1.20;99.90
42715;DHT22;28351;51.480;5.706;2023-11-22T04:48:34;1.20;99.90
42715;DHT22;28351;51.480;5.706;2023-11-22T04:50:59;1.30;99.90
42715;DHT22;28351;51.480;5.706;2023-11-22T04:53:25;1.30;99.90
42715;DHT22;28351;51.480;5.706;2023-11-22T04:55:51;1.40;99.90
42715;DHT22;28351;51.480;5.706;2023-11-22T04:58:16;1.50;99.90
42715;DHT22;28351;51.480;5.706;2023-11-22T05:00:42;1.70;99.90
42715;DHT22;28351;51.480;5.706;2023-11-22T05:03:08;1.90;99.90
42715;DHT22;28351;51.480;5.706;2023-11-22T05:05:33;1.90;99.90
42715;DHT22;28351;51.480;5.706;2023-11-22T05:07:59;2.00;99.90
42715;DHT22;28351;51.480;5.706;2023-11-22T05:10:26;2.10;99.90
42715;DHT22;28351;51.480;5.706;2023-11-22T05:12:57;2.20;99.90
42715;DHT22;28351;51.480;5.706;2023-11-22T05:15:28;2.40;99.90
42715;DHT22;28351;51.480;5.706;2023-11-22T05:17:54;2.40;99.90
42715;DHT22;28351;51.480;5.706;2023-11-22T05:20:20;2.40;99.90
42715;DHT22;28351;51.480;5.706;2023-11-22T05:22:46;2.50;99.90
42715;DHT22;28351;51.480;5.706;2023-11-22T05:25:12;2.60;99.90
42715;DHT22;28351;51.480;5.706;2023-11-22T05:27:38;2.70;99.90
42715;DHT22;28351;51.480;5.706;2023-11-22T05:30:04;2.70;99.90
42715;DHT22;28351;51.480;5.706;2023-11-22T05:32:30;2.70;99.90
42715;DHT22;28351;51.480;5.706;2023-11-22T05:34:57;2.80;99.90
42715;DHT22;28351;51.480;5.706;2023-11-22T05:37:25;2.90;99.90
42715;DHT22;28351;51.480;5.706;2023-11-22T05:39:51;2.90;99.90
42715;DHT22;28351;51.480;5.706;2023-11-22T05:42:16;2.90;99.90
42715;DHT22;28351;51.480;5.706;2023-11-22T05:44:43;3.00;99.90
42715;DHT22;28351;51.480;5.706;2023-11-22T05:47:15;3.00;99.90
42715;DHT22;28351;51.480;5.706;2023-11-22T05:49:43;3.00;99.90
42715;DHT22;28351;51.480;5.706;2023-11-22T05:52:09;2.90;99.90
42715;DHT22;28351;51.480;5.706;2023-11-22T05:54:37;3.00;99.90
42715;DHT22;28351;51.480;5.706;2023-11-22T05:57:03;2.90;99.90
42715;DHT22;28351;51.480;5.706;2023-11-22T05:59:40;3.00;99.90
42715;DHT22;28351;51.480;5.706;2023-11-22T06:02:13;3.00;99.90
42715;DHT22;28351;51.480;5.706;2023-11-22T06:04:39;3.00;99.90
42715;DHT22;28351;51.480;5.706;2023-11-22T06:07:14;3.00;99.90
42715;DHT22;28351;51.480;5.706;2023-11-22T06:09:39;3.00;99.90
42715;DHT22;28351;51.480;5.706;2023-11-22T06:12:05;3.00;99.90
42715;DHT22;28351;51.480;5.706;2023-11-22T06:14:31;3.00;99.90
42715;DHT22;28351;51.480;5.706;2023-11-22T06:17:06;3.10;99.90
42715;DHT22;28351;51.480;5.706;2023-11-22T06:19:40;3.10;99.90
42715;DHT22;28351;51.480;5.706;2023-11-22T06:22:09;3.10;99.90
42715;DHT22;28351;51.480;5.706;2023-11-22T06:24:36;3.10;99.90
42715;DHT22;28351;51.480;5.706;2023-11-22T06:27:02;3.10;99.90
42715;DHT22;28351;51.480;5.706;2023-11-22T06:29:29;3.10;99.90
42715;DHT22;28351;51.480;5.706;2023-11-22T06:31:54;3.10;99.90
42715;DHT22;28351;51.480;5.706;2023-11-22T06:34:20;3.10;99.90
42715;DHT22;28351;51.480;5.706;2023-11-22T06:36:45;3.20;99.90
42715;DHT22;28351;51.480;5.706;2023-11-22T06:39:11;3.20;99.90
42715;DHT22;28351;51.480;5.706;2023-11-22T06:41:42;3.20;99.90
42715;DHT22;28351;51.480;5.706;2023-11-22T06:44:07;3.30;99.90
42715;DHT22;28351;51.480;5.706;2023-11-22T06:46:33;3.30;99.90
42715;DHT22;28351;51.480;5.706;2023-11-22T06:48:58;3.20;99.90
42715;DHT22;28351;51.480;5.706;2023-11-22T06:51:24;3.20;99.90
42715;DHT22;28351;51.480;5.706;2023-11-22T06:53:50;3.20;99.90
42715;DHT22;28351;51.480;5.706;2023-11-22T06:56:17;3.20;99.90
42715;DHT22;28351;51.480;5.706;2023-11-22T06:58:43;3.10;99.90
42715;DHT22;28351;51.480;5.706;2023-11-22T07:01:09;3.20;99.90
42715;DHT22;28351;51.480;5.706;2023-11-22T07:03:36;3.20;99.90
42715;DHT22;28351;51.480;5.706;2023-11-22T07:06:03;3.20;99.90
42715;DHT22;28351;51.480;5.706;2023-11-22T07:08:29;3.30;99.90
42715;DHT22;28351;51.480;5.706;2023-11-22T07:10:56;3.40;99.90
42715;DHT22;28351;51.480;5.706;2023-11-22T07:13:22;3.40;99.90
42715;DHT22;28351;51.480;5.706;2023-11-22T07:15:48;3.40;99.90
42715;DHT22;28351;51.480;5.706;2023-11-22T07:18:13;3.50;99.90
42715;DHT22;28351;51.480;5.706;2023-11-22T07:20:39;3.50;99.90
42715;DHT22;28351;51.480;5.706;2023-11-22T07:23:05;3.50;99.90
42715;DHT22;28351;51.480;5.706;2023-11-22T07:25:31;3.50;99.90
42715;DHT22;28351;51.480;5.706;2023-11-22T07:27:57;3.50;99.90
42715;DHT22;28351;51.480;5.706;2023-11-22T07:30:24;3.50;99.90
42715;DHT22;28351;51.480;5.706;2023-11-22T07:32:52;3.60;99.90
42715;DHT22;28351;51.480;5.706;2023-11-22T07:35:18;3.60;99.90
42715;DHT22;28351;51.480;5.706;2023-11-22T07:37:47;3.60;99.90
42715;DHT22;28351;51.480;5.706;2023-11-22T07:40:14;3.60;99.90
42715;DHT22;28351;51.480;5.706;2023-11-22T07:42:42;3.70;99.90
42715;DHT22;28351;51.480;5.706;2023-11-22T07:45:09;3.70;99.90
42715;DHT22;28351;51.480;5.706;2023-11-22T07:47:45;3.80;99.90
42715;DHT22;28351;51.480;5.706;2023-11-22T07:50:20;3.80;99.90
42715;DHT22;28351;51.480;5.706;2023-11-22T07:52:48;3.90;99.90
42715;DHT22;28351;51.480;5.706;2023-11-22T07:55:14;4.00;99.90
42715;DHT22;28351;51.480;5.706;2023-11-22T07:57:40;4.10;99.90
42715;DHT22;28351;51.480;5.706;2023-11-22T08:00:11;4.10;99.90
42715;DHT22;28351;51.480;5.706;2023-11-22T08:02:48;4.00;99.90
42715;DHT22;28351;51.480;5.706;2023-11-22T08:05:16;4.10;99.90
42715;DHT22;28351;51.480;5.706;2023-11-22T08:07:48;4.20;99.90
42715;DHT22;28351;51.480;5.706;2023-11-22T08:10:14;4.10;99.90
42715;DHT22;28351;51.480;5.706;2023-11-22T08:12:45;4.00;99.90
42715;DHT22;28351;51.480;5.706;2023-11-22T08:15:11;4.00;99.90
42715;DHT22;28351;51.480;5.706;2023-11-22T08:17:40;4.10;99.90
42715;DHT22;28351;51.480;5.706;2023-11-22T08:20:06;4.20;99.90
42715;DHT22;28351;51.480;5.706;2023-11-22T08:22:37;4.30;99.90
42715;DHT22;28351;51.480;5.706;2023-11-22T08:25:04;4.40;99.90
42715;DHT22;28351;51.480;5.706;2023-11-22T08:27:31;4.50;99.90
42715;DHT22;28351;51.480;5.706;2023-11-22T08:30:07;4.60;99.90
42715;DHT22;28351;51.480;5.706;2023-11-22T08:32:35;4.70;99.90
42715;DHT22;28351;51.480;5.706;2023-11-22T08:35:05;4.70;99.90
42715;DHT22;28351;51.480;5.706;2023-11-22T08:37:33;4.80;99.90
42715;DHT22;28351;51.480;5.706;2023-11-22T08:40:01;5.00;99.90
42715;DHT22;28351;51.480;5.706;2023-11-22T08:42:26;5.00;99.90
42715;DHT22;28351;51.480;5.706;2023-11-22T08:44:52;5.00;99.90
42715;DHT22;28351;51.480;5.706;2023-11-22T08:47:19;4.90;99.90
42715;DHT22;28351;51.480;5.706;2023-11-22T08:49:45;4.90;99.90
42715;DHT22;28351;51.480;5.706;2023-11-22T08:52:10;5.00;99.90
42715;DHT22;28351;51.480;5.706;2023-11-22T08:54:37;5.10;99.90
42715;DHT22;28351;51.480;5.706;2023-11-22T08:57:03;5.10;99.90
42715;DHT22;28351;51.480;5.706;2023-11-22T08:59:28;5.20;99.90
42715;DHT22;28351;51.480;5.706;2023-11-22T09:01:54;5.20;99.90
42715;DHT22;28351;51.480;5.706;2023-11-22T09:04:20;5.10;99.90
42715;DHT22;28351;51.480;5.706;2023-11-22T09:06:47;5.10;99.90
42715;DHT22;28351;51.480;5.706;2023-11-22T09:09:13;5.20;99.90
42715;DHT22;28351;51.480;5.706;2023-11-22T09:11:41;5.50;99.90
42715;DHT22;28351;51.480;5.706;2023-11-22T09:14:06;5.40;99.90
42715;DHT22;28351;51.480;5.706;2023-11-22T09:16:38;5.60;99.90
42715;DHT22;28351;51.480;5.706;2023-11-22T09:19:04;5.60;99.90
42715;DHT22;28351;51.480;5.706;2023-11-22T09:21:33;5.80;99.90
42715;DHT22;28351;51.480;5.706;2023-11-22T09:24:00;5.60;99.90
42715;DHT22;28351;51.480;5.706;2023-11-22T09:26:26;5.80;99.90
42715;DHT22;28351;51.480;5.706;2023-11-22T09:28:52;5.70;99.90
42715;DHT22;28351;51.480;5.706;2023-11-22T09:31:19;5.80;99.90
42715;DHT22;28351;51.480;5.706;2023-11-22T09:33:46;5.90;99.90
42715;DHT22;28351;51.480;5.706;2023-11-22T09:36:12;6.00;99.90
42715;DHT22;28351;51.480;5.706;2023-11-22T09:38:38;6.00;99.90
42715;DHT22;28351;51.480;5.706;2023-11-22T09:41:04;6.00;99.90
42715;DHT22;28351;51.480;5.706;2023-11-22T09:43:30;6.00;99.90
42715;DHT22;28351;51.480;5.706;2023-11-22T09:45:57;6.00;99.90
42715;DHT22;28351;51.480;5.706;2023-11-22T09:48:26;6.00;99.90
42715;DHT22;28351;51.480;5.706;2023-11-22T09:56:23;6.00;99.90
42715;DHT22;28351;51.480;5.706;2023-11-22T09:58:53;6.20;99.90
42715;DHT22;28351;51.480;5.706;2023-11-22T10:01:22;6.10;99.90
42715;DHT22;28351;51.480;5.706;2023-11-22T10:03:48;6.30;99.90
42715;DHT22;28351;51.480;5.706;2023-11-22T10:06:14;6.40;99.90
42715;DHT22;28351;51.480;5.706;2023-11-22T10:08:41;6.60;99.90
42715;DHT22;28351;51.480;5.706;2023-11-22T10:11:07;6.70;99.90
42715;DHT22;28351;51.480;5.706;2023-11-22T10:13:33;6.70;99.90
42715;DHT22;28351;51.480;5.706;2023-11-22T10:16:19;6.60;99.90
42715;DHT22;28351;51.480;5.706;2023-11-22T10:18:46;6.70;99.90
42715;DHT22;28351;51.480;5.706;2023-11-22T10:21:23;6.70;99.90
42715;DHT22;28351;51.480;5.706;2023-11-22T10:23:51;6.70;99.90
42715;DHT22;28351;51.480;5.706;2023-11-22T10:26:18;6.80;99.90
42715;DHT22;28351;51.480;5.706;2023-11-22T10:28:44;6.90;99.90
42715;DHT22;28351;51.480;5.706;2023-11-22T10:31:10;7.10;99.90
42715;DHT22;28351;51.480;5.706;2023-11-22T10:33:39;7.00;99.90
42715;DHT22;28351;51.480;5.706;2023-11-22T10:36:07;7.20;99.90
42715;DHT22;28351;51.480;5.706;2023-11-22T10:38:34;7.20;99.90
42715;DHT22;28351;51.480;5.706;2023-11-22T10:41:00;7.20;99.90
42715;DHT22;28351;51.480;5.706;2023-11-22T10:43:30;7.30;99.90
42715;DHT22;28351;51.480;5.706;2023-11-22T10:45:58;7.10;99.90
42715;DHT22;28351;51.480;5.706;2023-11-22T10:48:24;7.00;99.90
42715;DHT22;28351;51.480;5.706;2023-11-22T10:50:53;7.00;99.90
42715;DHT22;28351;51.480;5.706;2023-11-22T10:53:32;7.10;99.90
42715;DHT22;28351;51.480;5.706;2023-11-22T10:56:11;7.10;99.90
42715;DHT22;28351;51.480;5.706;2023-11-22T10:58:49;7.20;99.90
42715;DHT22;28351;51.480;5.706;2023-11-22T11:01:16;7.30;99.90
42715;DHT22;28351;51.480;5.706;2023-11-22T11:03:46;7.40;99.90
42715;DHT22;28351;51.480;5.706;2023-11-22T11:06:20;7.70;99.90
42715;DHT22;28351;51.480;5.706;2023-11-22T11:08:47;7.80;99.90
42715;DHT22;28351;51.480;5.706;2023-11-22T11:11:14;8.00;99.90
42715;DHT22;28351;51.480;5.706;2023-11-22T11:13:40;8.00;99.90
42715;DHT22;28351;51.480;5.706;2023-11-22T11:16:08;8.10;99.90
42715;DHT22;28351;51.480;5.706;2023-11-22T11:18:34;8.20;99.90
42715;DHT22;28351;51.480;5.706;2023-11-22T11:21:07;8.30;99.90
42715;DHT22;28351;51.480;5.706;2023-11-22T11:23:33;8.60;99.90
42715;DHT22;28351;51.480;5.706;2023-11-22T11:26:09;8.70;99.90
42715;DHT22;28351;51.480;5.706;2023-11-22T11:28:43;8.70;99.90
42715;DHT22;28351;51.480;5.706;2023-11-22T11:31:10;8.60;99.90
42715;DHT22;28351;51.480;5.706;2023-11-22T11:33:54;8.70;99.90
42715;DHT22;28351;51.480;5.706;2023-11-22T11:36:31;8.80;99.90
42715;DHT22;28351;51.480;5.706;2023-11-22T11:39:13;8.90;99.90
42715;DHT22;28351;51.480;5.706;2023-11-22T11:41:43;9.10;99.90
42715;DHT22;28351;51.480;5.706;2023-11-22T11:44:09;9.20;99.90
42715;DHT22;28351;51.480;5.706;2023-11-22T11:46:36;9.30;99.90
42715;DHT22;28351;51.480;5.706;2023-11-22T11:49:06;9.30;99.90
42715;DHT22;28351;51.480;5.706;2023-11-22T11:51:35;9.50;99.90
42715;DHT22;28351;51.480;5.706;2023-11-22T11:54:02;10.00;99.90
42715;DHT22;28351;51.480;5.706;2023-11-22T11:56:29;10.10;99.90
42715;DHT22;28351;51.480;5.706;2023-11-22T11:58:57;10.60;99.90
42715;DHT22;28351;51.480;5.706;2023-11-22T12:01:24;11.00;99.90
42715;DHT22;28351;51.480;5.706;2023-11-22T12:03:52;10.60;99.90
42715;DHT22;28351;51.480;5.706;2023-11-22T12:06:18;10.00;99.90
42715;DHT22;28351;51.480;5.706;2023-11-22T12:08:45;9.40;99.90
42715;DHT22;28351;51.480;5.706;2023-11-22T12:11:15;8.80;99.90
42715;DHT22;28351;51.480;5.706;2023-11-22T12:13:45;8.50;99.90
42715;DHT22;28351;51.480;5.706;2023-11-22T12:16:16;8.20;99.90
42715;DHT22;28351;51.480;5.706;2023-11-22T12:18:50;8.00;99.90
42715;DHT22;28351;51.480;5.706;2023-11-22T12:21:17;8.00;99.90
42715;DHT22;28351;51.480;5.706;2023-11-22T12:23:44;8.30;99.90
42715;DHT22;28351;51.480;5.706;2023-11-22T12:26:19;8.20;99.90
42715;DHT22;28351;51.480;5.706;2023-11-22T12:28:46;8.30;99.90
42715;DHT22;28351;51.480;5.706;2023-11-22T12:31:14;8.50;99.90
42715;DHT22;28351;51.480;5.706;2023-11-22T12:33:41;8.80;99.90
42715;DHT22;28351;51.480;5.706;2023-11-22T12:36:08;9.20;99.90
42715;DHT22;28351;51.480;5.706;2023-11-22T12:38:43;9.10;99.90
42715;DHT22;28351;51.480;5.706;2023-11-22T12:41:09;9.70;99.90
42715;DHT22;28351;51.480;5.706;2023-11-22T12:43:36;10.20;99.90
42715;DHT22;28351;51.480;5.706;2023-11-22T12:46:06;10.60;99.90
42715;DHT22;28351;51.480;5.706;2023-11-22T12:48:33;10.80;99.90
42715;DHT22;28351;51.480;5.706;2023-11-22T12:51:00;10.30;99.90
42715;DHT22;28351;51.480;5.706;2023-11-22T12:53:27;10.00;99.90
42715;DHT22;28351;51.480;5.706;2023-11-22T12:55:54;9.50;99.90
42715;DHT22;28351;51.480;5.706;2023-11-22T12:58:25;9.80;99.90
42715;DHT22;28351;51.480;5.706;2023-11-22T13:00:52;9.60;99.90
42715;DHT22;28351;51.480;5.706;2023-11-22T13:03:24;9.90;99.90
42715;DHT22;28351;51.480;5.706;2023-11-22T13:05:50;10.60;99.90
42715;DHT22;28351;51.480;5.706;2023-11-22T13:08:17;11.20;99.90
42715;DHT22;28351;51.480;5.706;2023-11-22T13:10:45;10.80;99.90
42715;DHT22;28351;51.480;5.706;2023-11-22T13:13:13;10.20;99.90
42715;DHT22;28351;51.480;5.706;2023-11-22T13:15:39;9.40;99.90
42715;DHT22;28351;51.480;5.706;2023-11-22T13:18:06;8.80;99.90
42715;DHT22;28351;51.480;5.706;2023-11-22T13:20:33;8.60;99.90
42715;DHT22;28351;51.480;5.706;2023-11-22T13:22:59;8.50;99.90
42715;DHT22;28351;51.480;5.706;2023-11-22T13:25:29;8.30;99.90
42715;DHT22;28351;51.480;5.706;2023-11-22T13:27:55;8.30;99.90
42715;DHT22;28351;51.480;5.706;2023-11-22T13:30:22;8.50;99.90
42715;DHT22;28351;51.480;5.706;2023-11-22T13:32:52;8.60;99.90
42715;DHT22;28351;51.480;5.706;2023-11-22T13:35:19;8.70;99.90
42715;DHT22;28351;51.480;5.706;2023-11-22T13:37:46;8.70;99.90
42715;DHT22;28351;51.480;5.706;2023-11-22T13:40:17;8.70;99.90
42715;DHT22;28351;51.480;5.706;2023-11-22T13:42:48;8.70;99.90
42715;DHT22;28351;51.480;5.706;2023-11-22T13:45:16;8.70;99.90
42715;DHT22;28351;51.480;5.706;2023-11-22T13:47:52;8.70;99.90
42715;DHT22;28351;51.480;5.706;2023-11-22T13:50:20;8.80;99.90
42715;DHT22;28351;51.480;5.706;2023-11-22T13:52:52;8.90;99.90
42715;DHT22;28351;51.480;5.706;2023-11-22T13:55:18;8.70;99.90
42715;DHT22;28351;51.480;5.706;2023-11-22T13:57:54;8.60;99.90
42715;DHT22;28351;51.480;5.706;2023-11-22T14:00:21;8.40;99.90
42715;DHT22;28351;51.480;5.706;2023-11-22T14:02:51;8.20;99.90
42715;DHT22;28351;51.480;5.706;2023-11-22T14:05:17;8.10;99.90
42715;DHT22;28351;51.480;5.706;2023-11-22T14:07:44;7.80;99.90
42715;DHT22;28351;51.480;5.706;2023-11-22T14:10:10;7.60;99.90
42715;DHT22;28351;51.480;5.706;2023-11-22T14:12:37;7.40;99.90
42715;DHT22;28351;51.480;5.706;2023-11-22T14:15:03;7.30;99.90
42715;DHT22;28351;51.480;5.706;2023-11-22T14:17:32;7.10;99.90
42715;DHT22;28351;51.480;5.706;2023-11-22T14:19:58;7.00;99.90
42715;DHT22;28351;51.480;5.706;2023-11-22T14:22:24;6.90;99.90
42715;DHT22;28351;51.480;5.706;2023-11-22T14:24:52;6.90;99.90
42715;DHT22;28351;51.480;5.706;2023-11-22T14:27:22;6.80;99.90
42715;DHT22;28351;51.480;5.706;2023-11-22T14:29:48;6.80;99.90
42715;DHT22;28351;51.480;5.706;2023-11-22T14:32:19;6.80;99.90
42715;DHT22;28351;51.480;5.706;2023-11-22T14:34:46;6.70;99.90
42715;DHT22;28351;51.480;5.706;2023-11-22T14:37:14;6.70;99.90
42715;DHT22;28351;51.480;5.706;2023-11-22T14:39:41;6.60;99.90
42715;DHT22;28351;51.480;5.706;2023-11-22T14:42:06;6.50;99.90
42715;DHT22;28351;51.480;5.706;2023-11-22T14:44:34;6.50;99.90
42715;DHT22;28351;51.480;5.706;2023-11-22T14:47:00;6.50;99.90
42715;DHT22;28351;51.480;5.706;2023-11-22T14:49:32;6.40;99.90
42715;DHT22;28351;51.480;5.706;2023-11-22T14:51:57;6.30;99.90
42715;DHT22;28351;51.480;5.706;2023-11-22T14:54:23;6.30;99.90
42715;DHT22;28351;51.480;5.706;2023-11-22T14:56:49;6.30;99.90
42715;DHT22;28351;51.480;5.706;2023-11-22T14:59:15;6.30;99.90
42715;DHT22;28351;51.480;5.706;2023-11-22T15:01:42;6.30;99.90
42715;DHT22;28351;51.480;5.706;2023-11-22T15:04:09;6.30;99.90
42715;DHT22;28351;51.480;5.706;2023-11-22T15:06:36;6.30;99.90
42715;DHT22;28351;51.480;5.706;2023-11-22T15:09:03;6.30;99.90
42715;DHT22;28351;51.480;5.706;2023-11-22T15:11:36;6.40;99.90
42715;DHT22;28351;51.480;5.706;2023-11-22T15:14:03;6.30;99.90
42715;DHT22;28351;51.480;5.706;2023-11-22T15:16:29;6.30;99.90
42715;DHT22;28351;51.480;5.706;2023-11-22T15:18:54;6.40;99.90
42715;DHT22;28351;51.480;5.706;2023-11-22T15:21:20;6.30;99.90
42715;DHT22;28351;51.480;5.706;2023-11-22T15:23:45;6.30;99.90
42715;DHT22;28351;51.480;5.706;2023-11-22T15:26:12;6.20;99.90
42715;DHT22;28351;51.480;5.706;2023-11-22T15:28:39;6.10;99.90
42715;DHT22;28351;51.480;5.706;2023-11-22T15:31:05;6.00;99.90
42715;DHT22;28351;51.480;5.706;2023-11-22T15:33:30;5.90;99.90
42715;DHT22;28351;51.480;5.706;2023-11-22T15:35:56;5.90;99.90
42715;DHT22;28351;51.480;5.706;2023-11-22T15:38:22;5.90;99.90
42715;DHT22;28351;51.480;5.706;2023-11-22T15:40:48;5.90;99.90
42715;DHT22;28351;51.480;5.706;2023-11-22T15:43:17;5.90;99.90
42715;DHT22;28351;51.480;5.706;2023-11-22T15:45:48;5.90;99.90
42715;DHT22;28351;51.480;5.706;2023-11-22T15:48:15;5.90;99.90
42715;DHT22;28351;51.480;5.706;2023-11-22T15:50:46;5.90;99.90